createdAt,value
2017-12-21T00:00:13.740Z,8.7
2017-12-21T00:01:15.463Z,8.7
2017-12-21T00:02:17.212Z,8.7
2017-12-21T00:03:18.934Z,8.7
2017-12-21T00:04:20.674Z,8.7
2017-12-21T00:05:22.393Z,8.7
2017-12-21T00:06:24.113Z,8.7
2017-12-21T00:07:25.856Z,8.7
2017-12-21T00:08:27.584Z,8.7
2017-12-21T00:09:29.295Z,8.7
2017-12-21T00:10:30.998Z,8.7
2017-12-21T00:11:32.830Z,8.6
2017-12-21T00:12:34.565Z,8.7
2017-12-21T00:13:37.217Z,8.7
2017-12-21T00:14:38.895Z,8.7
2017-12-21T00:15:40.617Z,8.7
2017-12-21T00:16:42.362Z,8.8
2017-12-21T00:17:44.087Z,8.9
2017-12-21T00:18:45.798Z,8.9
2017-12-21T00:19:47.512Z,8.7
2017-12-21T00:20:49.264Z,8.8
2017-12-21T00:21:50.977Z,8.8
2017-12-21T00:22:52.704Z,8.8
2017-12-21T00:23:54.425Z,8.8
2017-12-21T00:24:56.144Z,8.8
2017-12-21T00:25:57.868Z,8.8
2017-12-21T00:26:59.568Z,8.7
2017-12-21T00:28:01.294Z,8.8
2017-12-21T00:29:03.042Z,8.7
2017-12-21T00:30:04.820Z,8.8
2017-12-21T00:31:06.627Z,8.8
2017-12-21T00:32:08.380Z,8.8
2017-12-21T00:33:10.107Z,8.8
2017-12-21T00:34:11.820Z,8.8
2017-12-21T00:35:13.519Z,8.8
2017-12-21T00:36:15.236Z,8.7
2017-12-21T00:37:16.949Z,8.9
2017-12-21T00:38:18.677Z,9.1
2017-12-21T00:39:20.993Z,9.3
2017-12-21T00:40:22.751Z,9.3
2017-12-21T00:41:24.505Z,9.7
2017-12-21T00:42:26.263Z,9.7
2017-12-21T00:43:28.024Z,9.8
2017-12-21T00:44:29.763Z,9.9
2017-12-21T00:45:31.485Z,9.8
2017-12-21T00:46:33.236Z,9.8
2017-12-21T00:47:35.040Z,9.8
2017-12-21T00:48:36.755Z,9.9
2017-12-21T00:49:38.511Z,9.8
2017-12-21T00:50:40.252Z,9.7
2017-12-21T00:51:41.980Z,9.7
2017-12-21T00:52:43.719Z,9.8
2017-12-21T00:53:45.437Z,9.8
2017-12-21T00:54:47.176Z,10.0
2017-12-21T00:55:48.885Z,10.5
2017-12-21T00:56:50.605Z,10.7
2017-12-21T00:57:52.330Z,11.3
2017-12-21T00:58:54.058Z,11.4
2017-12-21T00:59:55.768Z,11.5
2017-12-21T01:00:57.538Z,11.9
2017-12-21T01:01:59.298Z,12.3
2017-12-21T01:03:01.043Z,12.6
2017-12-21T01:04:02.774Z,12.7
2017-12-21T01:05:04.493Z,12.7
2017-12-21T01:06:06.211Z,13.0
2017-12-21T01:07:07.936Z,13.0
2017-12-21T01:08:09.640Z,13.0
2017-12-21T01:09:11.360Z,13.0
2017-12-21T01:10:13.073Z,13.1
2017-12-21T01:11:14.791Z,13.2
2017-12-21T01:12:16.492Z,13.4
2017-12-21T01:13:18.191Z,13.4
2017-12-21T01:14:19.895Z,13.4
2017-12-21T01:15:21.614Z,13.4
2017-12-21T01:16:23.314Z,13.4
2017-12-21T01:17:25.061Z,13.4
2017-12-21T01:18:26.792Z,13.4
2017-12-21T01:19:28.556Z,13.4
2017-12-21T01:20:30.289Z,13.4
2017-12-21T01:21:32.046Z,13.4
2017-12-21T01:22:33.758Z,13.4
2017-12-21T01:23:35.476Z,13.5
2017-12-21T01:24:37.205Z,13.5
2017-12-21T01:25:38.923Z,13.5
2017-12-21T01:26:40.624Z,13.5
2017-12-21T01:27:42.322Z,13.7
2017-12-21T01:28:44.072Z,13.6
2017-12-21T01:29:45.794Z,13.7
2017-12-21T01:30:47.515Z,13.8
2017-12-21T01:31:49.240Z,13.7
2017-12-21T01:32:50.954Z,13.8
2017-12-21T01:33:52.663Z,13.9
2017-12-21T01:34:54.400Z,14.0
2017-12-21T01:35:56.103Z,14.1
2017-12-21T01:36:57.820Z,14.0
2017-12-21T01:37:59.520Z,14.1
2017-12-21T01:39:01.252Z,14.1
2017-12-21T01:40:03.003Z,14.1
2017-12-21T01:41:04.725Z,14.1
2017-12-21T01:42:06.438Z,14.0
2017-12-21T01:43:08.157Z,14.1
2017-12-21T01:44:09.886Z,14.0
2017-12-21T01:45:11.614Z,14.0
2017-12-21T01:46:13.340Z,14.0
2017-12-21T01:47:15.114Z,14.0
2017-12-21T01:48:16.881Z,14.0
2017-12-21T01:49:18.652Z,14.0
2017-12-21T01:50:20.379Z,14.0
2017-12-21T01:51:22.119Z,14.0
2017-12-21T01:52:23.860Z,14.0
2017-12-21T01:53:25.583Z,14.0
2017-12-21T01:54:27.313Z,14.2
2017-12-21T01:55:29.031Z,14.1
2017-12-21T01:56:30.742Z,14.2
2017-12-21T01:57:32.460Z,14.3
2017-12-21T01:58:34.217Z,14.3
2017-12-21T01:59:35.931Z,14.5
2017-12-21T02:00:37.665Z,14.3
2017-12-21T02:01:39.367Z,14.4
2017-12-21T02:02:41.075Z,14.4
2017-12-21T02:03:42.768Z,14.5
2017-12-21T02:04:44.486Z,14.6
2017-12-21T02:05:46.948Z,14.6
2017-12-21T02:06:48.697Z,14.7
2017-12-21T02:07:50.418Z,14.5
2017-12-21T02:08:52.145Z,14.7
2017-12-21T02:09:53.880Z,14.1
2017-12-21T02:10:55.594Z,12.8
2017-12-21T02:11:57.317Z,11.9
2017-12-21T02:12:59.058Z,11.2
2017-12-21T02:14:00.776Z,10.9
2017-12-21T02:15:02.484Z,10.5
2017-12-21T02:16:04.207Z,10.2
2017-12-21T02:17:05.932Z,10.0
2017-12-21T02:18:07.663Z,9.8
2017-12-21T02:19:09.375Z,9.7
2017-12-21T02:20:11.099Z,9.6
2017-12-21T02:21:12.817Z,9.5
2017-12-21T02:22:14.554Z,9.6
2017-12-21T02:23:16.269Z,9.4
2017-12-21T02:24:18.009Z,9.5
2017-12-21T02:25:19.740Z,9.4
2017-12-21T02:26:21.462Z,9.4
2017-12-21T02:27:23.187Z,9.5
2017-12-21T02:28:24.892Z,9.5
2017-12-21T02:29:26.623Z,9.4
2017-12-21T02:30:28.388Z,9.3
2017-12-21T02:31:30.188Z,9.3
2017-12-21T02:32:31.987Z,9.2
2017-12-21T02:33:33.855Z,9.1
2017-12-21T02:34:35.581Z,9.1
2017-12-21T02:35:37.368Z,9.1
2017-12-21T02:36:39.121Z,9.2
2017-12-21T02:37:40.847Z,9.1
2017-12-21T02:38:42.599Z,9.1
2017-12-21T02:39:44.307Z,9.1
2017-12-21T02:40:46.018Z,9.0
2017-12-21T02:41:47.746Z,9.0
2017-12-21T02:42:49.484Z,8.9
2017-12-21T02:43:51.244Z,8.9
2017-12-21T02:44:52.954Z,8.9
2017-12-21T02:45:54.737Z,8.9
2017-12-21T02:46:56.495Z,8.9
2017-12-21T02:47:58.220Z,8.9
2017-12-21T02:48:59.939Z,9.1
2017-12-21T02:50:01.652Z,9.2
2017-12-21T02:51:03.371Z,9.2
2017-12-21T02:52:05.075Z,9.3
2017-12-21T02:53:06.804Z,9.3
2017-12-21T02:54:08.521Z,9.3
2017-12-21T02:55:10.237Z,9.3
2017-12-21T02:56:11.960Z,9.3
2017-12-21T02:57:13.754Z,9.3
2017-12-21T02:58:15.472Z,9.3
2017-12-21T02:59:17.248Z,9.4
2017-12-21T03:00:18.946Z,9.3
2017-12-21T03:01:20.678Z,9.3
2017-12-21T03:02:22.496Z,9.2
2017-12-21T03:03:24.213Z,9.2
2017-12-21T03:04:25.935Z,9.3
2017-12-21T03:05:27.647Z,9.2
2017-12-21T03:06:29.380Z,9.2
2017-12-21T03:07:31.117Z,9.3
2017-12-21T03:08:33.207Z,9.2
2017-12-21T03:09:35.175Z,9.3
2017-12-21T03:10:37.345Z,9.2
2017-12-21T03:11:39.434Z,9.2
2017-12-21T03:12:41.474Z,9.3
2017-12-21T03:13:43.502Z,9.3
2017-12-21T03:14:45.576Z,9.4
2017-12-21T03:15:48.319Z,9.4
2017-12-21T03:16:50.359Z,9.4
2017-12-21T03:17:52.409Z,9.4
2017-12-21T03:18:54.457Z,9.5
2017-12-21T03:19:56.483Z,9.5
2017-12-21T03:20:58.536Z,9.7
2017-12-21T03:22:00.571Z,9.8
2017-12-21T03:23:02.616Z,9.7
2017-12-21T03:24:04.694Z,9.8
2017-12-21T03:25:06.716Z,9.9
2017-12-21T03:26:08.715Z,10.0
2017-12-21T03:27:11.292Z,9.9
2017-12-21T03:28:13.002Z,10.0
2017-12-21T03:29:15.070Z,10.0
2017-12-21T03:30:17.125Z,10.0
2017-12-21T03:31:19.146Z,9.9
2017-12-21T03:32:20.839Z,9.9
2017-12-21T03:33:22.575Z,9.9
2017-12-21T03:34:24.296Z,9.8
2017-12-21T03:35:26.012Z,9.8
2017-12-21T03:36:27.731Z,9.9
2017-12-21T03:37:29.450Z,10.0
2017-12-21T03:38:31.166Z,10.1
2017-12-21T03:39:32.881Z,10.5
2017-12-21T03:40:34.588Z,10.7
2017-12-21T03:41:36.306Z,10.7
2017-12-21T03:42:38.038Z,10.8
2017-12-21T03:43:39.769Z,10.9
2017-12-21T03:44:41.484Z,11.3
2017-12-21T03:45:43.191Z,11.7
2017-12-21T03:46:45.002Z,11.9
2017-12-21T03:47:46.643Z,11.9
2017-12-21T03:48:48.370Z,12.0
2017-12-21T03:49:50.079Z,11.8
2017-12-21T03:50:51.804Z,11.5
2017-12-21T03:51:53.514Z,11.3
2017-12-21T03:52:55.229Z,11.1
2017-12-21T03:53:56.945Z,11.2
2017-12-21T03:54:58.657Z,11.1
2017-12-21T03:56:00.381Z,10.9
2017-12-21T03:57:02.129Z,10.6
2017-12-21T03:58:03.845Z,10.5
2017-12-21T03:59:05.568Z,10.5
2017-12-21T04:00:07.314Z,10.5
2017-12-21T04:01:09.043Z,10.4
2017-12-21T04:02:10.751Z,10.5
2017-12-21T04:03:12.484Z,10.5
2017-12-21T04:04:14.248Z,10.4
2017-12-21T04:05:15.994Z,10.3
2017-12-21T04:06:17.721Z,10.1
2017-12-21T04:07:19.453Z,10.0
2017-12-21T04:08:21.210Z,9.8
2017-12-21T04:09:22.931Z,9.8
2017-12-21T04:10:24.662Z,9.7
2017-12-21T04:11:26.391Z,9.6
2017-12-21T04:12:28.088Z,9.5
2017-12-21T04:13:29.820Z,9.7
2017-12-21T04:14:31.524Z,9.6
2017-12-21T04:15:33.261Z,9.7
2017-12-21T04:16:34.968Z,9.6
2017-12-21T04:17:36.723Z,9.7
2017-12-21T04:18:38.451Z,9.6
2017-12-21T04:19:40.176Z,9.7
2017-12-21T04:20:41.903Z,9.8
2017-12-21T04:21:43.612Z,9.8
2017-12-21T04:22:45.343Z,9.9
2017-12-21T04:23:47.062Z,9.8
2017-12-21T04:24:48.773Z,9.8
2017-12-21T04:25:50.506Z,9.8
2017-12-21T04:26:52.235Z,10.0
2017-12-21T04:27:53.944Z,10.2
2017-12-21T04:28:55.680Z,10.5
2017-12-21T04:29:57.393Z,10.9
2017-12-21T04:30:59.111Z,11.4
2017-12-21T04:32:00.825Z,11.4
2017-12-21T04:33:02.539Z,11.8
2017-12-21T04:34:04.260Z,12.3
2017-12-21T04:35:05.982Z,12.7
2017-12-21T04:36:07.752Z,13.1
2017-12-21T04:37:09.483Z,13.4
2017-12-21T04:38:11.274Z,13.5
2017-12-21T04:39:13.028Z,13.7
2017-12-21T04:40:14.779Z,13.8
2017-12-21T04:41:16.511Z,13.8
2017-12-21T04:42:18.218Z,13.8
2017-12-21T04:43:19.944Z,13.9
2017-12-21T04:44:21.651Z,14.0
2017-12-21T04:45:23.366Z,14.2
2017-12-21T04:46:25.090Z,14.0
2017-12-21T04:47:26.893Z,14.1
2017-12-21T04:48:28.662Z,14.2
2017-12-21T04:49:30.459Z,14.2
2017-12-21T04:50:32.246Z,14.2
2017-12-21T04:51:34.056Z,14.4
2017-12-21T04:52:35.775Z,14.3
2017-12-21T04:53:37.488Z,14.3
2017-12-21T04:54:39.195Z,14.3
2017-12-21T04:55:40.922Z,14.2
2017-12-21T04:56:42.613Z,14.4
2017-12-21T04:57:44.338Z,14.4
2017-12-21T04:58:46.064Z,14.3
2017-12-21T04:59:47.817Z,14.4
2017-12-21T05:00:49.559Z,14.4
2017-12-21T05:01:51.272Z,14.4
2017-12-21T05:02:53.000Z,14.3
2017-12-21T05:03:54.727Z,14.3
2017-12-21T05:04:56.472Z,14.2
2017-12-21T05:05:58.199Z,14.1
2017-12-21T05:06:59.932Z,14.1
2017-12-21T05:08:01.647Z,14.0
2017-12-21T05:09:03.370Z,14.0
2017-12-21T05:10:05.111Z,14.0
2017-12-21T05:11:06.850Z,14.0
2017-12-21T05:12:08.560Z,13.9
2017-12-21T05:13:10.265Z,13.9
2017-12-21T05:14:12.004Z,13.8
2017-12-21T05:15:13.758Z,13.8
2017-12-21T05:16:15.459Z,13.9
2017-12-21T05:17:17.197Z,14.0
2017-12-21T05:18:18.949Z,13.9
2017-12-21T05:19:20.667Z,13.9
2017-12-21T05:20:22.369Z,13.8
2017-12-21T05:21:24.115Z,13.7
2017-12-21T05:22:25.831Z,13.8
2017-12-21T05:23:27.604Z,13.7
2017-12-21T05:24:29.347Z,13.7
2017-12-21T05:25:31.082Z,13.7
2017-12-21T05:26:32.815Z,13.6
2017-12-21T05:27:34.530Z,13.6
2017-12-21T05:28:36.278Z,13.6
2017-12-21T05:29:38.005Z,13.7
2017-12-21T05:30:39.748Z,13.8
2017-12-21T05:31:41.446Z,13.8
2017-12-21T05:32:43.164Z,13.8
2017-12-21T05:33:44.902Z,13.9
2017-12-21T05:34:46.622Z,13.8
2017-12-21T05:35:48.357Z,13.8
2017-12-21T05:36:50.060Z,13.8
2017-12-21T05:37:51.780Z,13.8
2017-12-21T05:38:53.501Z,13.9
2017-12-21T05:39:55.225Z,13.7
2017-12-21T05:40:56.956Z,13.8
2017-12-21T05:41:58.684Z,13.8
2017-12-21T05:43:00.392Z,13.8
2017-12-21T05:44:02.121Z,13.6
2017-12-21T05:45:03.852Z,13.6
2017-12-21T05:46:05.563Z,13.6
2017-12-21T05:47:07.284Z,13.6
2017-12-21T05:48:09.015Z,13.6
2017-12-21T05:49:10.719Z,13.7
2017-12-21T05:50:12.444Z,13.6
2017-12-21T05:51:14.176Z,13.6
2017-12-21T05:52:15.884Z,13.7
2017-12-21T05:53:17.606Z,13.7
2017-12-21T05:54:19.336Z,13.7
2017-12-21T05:55:21.063Z,13.8
2017-12-21T05:56:22.800Z,13.7
2017-12-21T05:57:24.516Z,13.8
2017-12-21T05:58:26.237Z,13.7
2017-12-21T05:59:28.046Z,13.9
2017-12-21T06:00:29.734Z,13.9
2017-12-21T06:01:31.474Z,13.9
2017-12-21T06:02:33.198Z,13.9
2017-12-21T06:03:34.886Z,14.0
2017-12-21T06:04:36.594Z,14.0
2017-12-21T06:05:38.331Z,13.8
2017-12-21T06:06:40.036Z,13.9
2017-12-21T06:07:41.786Z,13.9
2017-12-21T06:08:43.507Z,13.9
2017-12-21T06:09:45.226Z,13.8
2017-12-21T06:10:47.015Z,13.6
2017-12-21T06:11:48.732Z,13.6
2017-12-21T06:12:50.433Z,13.7
2017-12-21T06:13:52.150Z,13.8
2017-12-21T06:14:53.892Z,13.8
2017-12-21T06:15:55.674Z,13.8
2017-12-21T06:16:57.401Z,13.7
2017-12-21T06:17:59.116Z,13.7
2017-12-21T06:19:00.851Z,13.8
2017-12-21T06:20:02.572Z,13.7
2017-12-21T06:21:04.286Z,13.8
2017-12-21T06:22:06.002Z,13.8
2017-12-21T06:23:07.739Z,13.8
2017-12-21T06:24:09.458Z,13.8
2017-12-21T06:25:11.201Z,13.8
2017-12-21T06:26:12.985Z,13.8
2017-12-21T06:27:14.723Z,13.7
2017-12-21T06:28:16.456Z,13.7
2017-12-21T06:29:18.214Z,13.8
2017-12-21T06:30:19.950Z,13.7
2017-12-21T06:31:21.764Z,13.8
2017-12-21T06:32:23.526Z,13.8
2017-12-21T06:33:25.223Z,13.7
2017-12-21T06:34:26.957Z,13.8
2017-12-21T06:35:28.720Z,13.7
2017-12-21T06:36:30.452Z,13.6
2017-12-21T06:37:32.222Z,13.6
2017-12-21T06:38:33.951Z,13.5
2017-12-21T06:39:35.666Z,13.4
2017-12-21T06:40:37.391Z,13.4
2017-12-21T06:41:39.124Z,13.4
2017-12-21T06:42:41.037Z,13.5
2017-12-21T06:43:42.726Z,13.5
2017-12-21T06:44:44.475Z,13.4
2017-12-21T06:45:46.225Z,13.4
2017-12-21T06:46:47.946Z,13.4
2017-12-21T06:47:49.669Z,13.4
2017-12-21T06:48:51.417Z,13.4
2017-12-21T06:49:53.163Z,13.3
2017-12-21T06:50:54.916Z,13.2
2017-12-21T06:51:56.646Z,13.2
2017-12-21T06:52:58.405Z,13.3
2017-12-21T06:54:00.166Z,13.3
2017-12-21T06:55:01.871Z,13.3
2017-12-21T06:56:03.574Z,13.3
2017-12-21T06:57:05.316Z,13.3
2017-12-21T06:58:07.055Z,13.3
2017-12-21T06:59:08.802Z,13.2
2017-12-21T07:00:10.630Z,13.2
2017-12-21T07:01:12.341Z,13.3
2017-12-21T07:02:14.089Z,13.3
2017-12-21T07:03:15.816Z,13.3
2017-12-21T07:04:17.569Z,13.4
2017-12-21T07:05:19.307Z,13.3
2017-12-21T07:06:21.033Z,13.3
2017-12-21T07:07:22.779Z,13.3
2017-12-21T07:08:24.494Z,13.3
2017-12-21T07:09:26.314Z,13.3
2017-12-21T07:10:28.046Z,13.3
2017-12-21T07:11:29.785Z,13.3
2017-12-21T07:12:31.511Z,13.3
2017-12-21T07:13:33.217Z,13.3
2017-12-21T07:14:34.945Z,13.2
2017-12-21T07:15:36.673Z,13.3
2017-12-21T07:16:38.429Z,13.2
2017-12-21T07:17:40.165Z,13.1
2017-12-21T07:18:41.916Z,13.2
2017-12-21T07:19:43.662Z,13.2
2017-12-21T07:20:45.401Z,13.1
2017-12-21T07:21:47.139Z,13.1
2017-12-21T07:22:48.854Z,13.1
2017-12-21T07:23:50.582Z,13.1
2017-12-21T07:24:52.324Z,13.2
2017-12-21T07:25:54.045Z,13.2
2017-12-21T07:26:55.768Z,13.3
2017-12-21T07:27:57.467Z,13.3
2017-12-21T07:28:59.245Z,13.3
2017-12-21T07:30:00.969Z,13.3
2017-12-21T07:31:02.673Z,13.2
2017-12-21T07:32:04.361Z,13.2
2017-12-21T07:33:06.089Z,13.1
2017-12-21T07:34:07.834Z,13.2
2017-12-21T07:35:09.589Z,13.2
2017-12-21T07:36:11.344Z,13.3
2017-12-21T07:37:13.153Z,13.2
2017-12-21T07:38:14.895Z,13.2
2017-12-21T07:39:16.669Z,13.2
2017-12-21T07:40:18.403Z,13.2
2017-12-21T07:41:20.117Z,13.2
2017-12-21T07:42:21.876Z,13.2
2017-12-21T07:43:23.627Z,13.1
2017-12-21T07:44:25.397Z,13.2
2017-12-21T07:45:27.141Z,13.1
2017-12-21T07:46:28.968Z,13.1
2017-12-21T07:47:30.687Z,13.1
2017-12-21T07:48:32.393Z,13.1
2017-12-21T07:49:34.107Z,13.1
2017-12-21T07:50:35.853Z,13.1
2017-12-21T07:51:37.583Z,13.2
2017-12-21T07:52:39.344Z,13.2
2017-12-21T07:53:41.078Z,13.1
2017-12-21T07:54:42.983Z,13.1
2017-12-21T07:55:44.847Z,13.0
2017-12-21T07:56:46.570Z,13.0
2017-12-21T07:57:48.295Z,13.1
2017-12-21T07:58:50.005Z,13.1
2017-12-21T07:59:51.733Z,13.0
2017-12-21T08:00:53.453Z,13.0
2017-12-21T08:01:55.164Z,13.0
2017-12-21T08:02:56.885Z,12.9
2017-12-21T08:03:58.629Z,12.9
2017-12-21T08:05:00.328Z,13.0
2017-12-21T08:06:02.058Z,13.0
2017-12-21T08:07:03.801Z,13.0
2017-12-21T08:08:05.519Z,13.1
2017-12-21T08:09:07.249Z,13.0
2017-12-21T08:10:08.962Z,13.0
2017-12-21T08:11:24.137Z,13.1
2017-12-21T08:12:25.847Z,13.1
2017-12-21T08:13:27.572Z,13.1
2017-12-21T08:14:29.381Z,13.1
2017-12-21T08:15:31.102Z,13.0
2017-12-21T08:16:32.875Z,13.2
2017-12-21T08:17:34.628Z,13.1
2017-12-21T08:18:36.351Z,13.2
2017-12-21T08:19:38.084Z,13.1
2017-12-21T08:20:39.827Z,13.2
2017-12-21T08:21:41.552Z,13.3
2017-12-21T08:22:43.254Z,13.2
2017-12-21T08:23:44.986Z,13.2
2017-12-21T08:24:46.751Z,13.2
2017-12-21T08:25:48.505Z,13.2
2017-12-21T08:26:50.232Z,13.2
2017-12-21T08:27:52.005Z,13.2
2017-12-21T08:28:53.741Z,13.2
2017-12-21T08:29:55.497Z,13.2
2017-12-21T08:30:57.243Z,13.2
2017-12-21T08:31:58.986Z,13.2
2017-12-21T08:33:00.714Z,13.3
2017-12-21T08:34:02.429Z,13.3
2017-12-21T08:35:04.206Z,13.4
2017-12-21T08:36:05.935Z,13.3
2017-12-21T08:37:07.657Z,13.4
2017-12-21T08:38:09.560Z,13.4
2017-12-21T08:39:11.310Z,13.5
2017-12-21T08:40:13.052Z,13.5
2017-12-21T08:41:14.789Z,13.4
2017-12-21T08:42:16.558Z,13.5
2017-12-21T08:43:18.291Z,13.4
2017-12-21T08:44:20.038Z,13.5
2017-12-21T08:45:21.867Z,13.5
2017-12-21T08:46:23.603Z,13.5
2017-12-21T08:47:25.420Z,13.5
2017-12-21T08:48:27.155Z,13.4
2017-12-21T08:49:28.915Z,13.5
2017-12-21T08:50:30.662Z,13.5
2017-12-21T08:51:32.398Z,13.5
2017-12-21T08:52:34.112Z,13.5
2017-12-21T08:53:35.834Z,13.5
2017-12-21T08:54:37.948Z,13.6
2017-12-21T08:55:39.613Z,13.5
2017-12-21T08:56:41.354Z,13.5
2017-12-21T08:57:43.075Z,13.6
2017-12-21T08:58:44.802Z,13.6
2017-12-21T08:59:46.523Z,13.6
2017-12-21T09:00:48.274Z,13.6
2017-12-21T09:01:50.042Z,13.7
2017-12-21T09:02:51.781Z,13.7
2017-12-21T09:03:53.562Z,13.7
2017-12-21T09:04:55.284Z,13.7
2017-12-21T09:05:57.023Z,13.8
2017-12-21T09:06:58.763Z,13.8
2017-12-21T09:08:00.479Z,13.8
2017-12-21T09:09:02.189Z,13.8
2017-12-21T09:10:03.967Z,13.8
2017-12-21T09:11:05.707Z,13.8
2017-12-21T09:12:07.447Z,13.9
2017-12-21T09:13:09.177Z,13.9
2017-12-21T09:14:10.911Z,13.9
2017-12-21T09:15:12.626Z,13.9
2017-12-21T09:16:14.384Z,14.0
2017-12-21T09:17:16.122Z,14.0
2017-12-21T09:18:17.851Z,14.0
2017-12-21T09:19:19.601Z,14.0
2017-12-21T09:20:21.464Z,14.0
2017-12-21T09:21:23.195Z,14.1
2017-12-21T09:22:24.900Z,14.2
2017-12-21T09:23:26.643Z,14.2
2017-12-21T09:24:28.360Z,14.1
2017-12-21T09:25:30.186Z,14.2
2017-12-21T09:26:32.753Z,14.2
2017-12-21T09:27:34.502Z,14.2
2017-12-21T09:28:36.453Z,14.3
2017-12-21T09:29:38.674Z,14.3
2017-12-21T09:30:40.430Z,14.3
2017-12-21T09:31:42.240Z,14.3
2017-12-21T09:32:43.960Z,14.3
2017-12-21T09:33:46.525Z,14.5
2017-12-21T09:34:48.303Z,14.5
2017-12-21T09:35:50.037Z,14.6
2017-12-21T09:36:51.775Z,14.5
2017-12-21T09:37:53.483Z,14.8
2017-12-21T09:38:55.200Z,14.7
2017-12-21T09:39:56.939Z,14.9
2017-12-21T09:40:58.665Z,15.2
2017-12-21T09:42:00.399Z,15.8
2017-12-21T09:43:02.128Z,16.8
2017-12-21T09:44:03.864Z,17.7
2017-12-21T09:45:05.651Z,18.9
2017-12-21T09:46:07.407Z,19.1
2017-12-21T09:47:09.206Z,19.0
2017-12-21T09:48:10.917Z,19.5
2017-12-21T09:49:12.641Z,19.6
2017-12-21T09:50:14.383Z,19.9
2017-12-21T09:51:16.162Z,20.4
2017-12-21T09:52:17.887Z,20.3
2017-12-21T09:53:19.656Z,20.3
2017-12-21T09:54:21.394Z,20.6
2017-12-21T09:55:23.105Z,20.5
2017-12-21T09:56:24.906Z,20.3
2017-12-21T09:57:26.638Z,20.5
2017-12-21T09:58:28.401Z,20.8
2017-12-21T09:59:30.195Z,20.6
2017-12-21T10:00:32.003Z,21.1
2017-12-21T10:01:33.773Z,20.6
2017-12-21T10:02:35.870Z,19.4
2017-12-21T10:03:37.628Z,20.2
2017-12-21T10:04:39.360Z,20.4
2017-12-21T10:05:41.112Z,20.7
2017-12-21T10:06:42.806Z,21.2
2017-12-21T10:07:44.523Z,21.2
2017-12-21T10:08:46.261Z,21.4
2017-12-21T10:09:47.985Z,20.9
2017-12-21T10:10:49.717Z,21.6
2017-12-21T10:11:51.470Z,21.6
2017-12-21T10:12:53.202Z,21.6
2017-12-21T10:13:54.935Z,21.7
2017-12-21T10:14:56.652Z,21.4
2017-12-21T10:15:58.382Z,21.7
2017-12-21T10:17:00.118Z,22.3
2017-12-21T10:18:01.852Z,21.8
2017-12-21T10:19:03.611Z,21.7
2017-12-21T10:20:05.380Z,21.8
2017-12-21T10:21:07.122Z,22.8
2017-12-21T10:22:08.918Z,22.6
2017-12-21T10:23:10.676Z,22.4
2017-12-21T10:24:12.402Z,22.1
2017-12-21T10:25:14.161Z,22.8
2017-12-21T10:26:15.914Z,22.7
2017-12-21T10:27:17.660Z,22.1
2017-12-21T10:28:19.426Z,22.6
2017-12-21T10:29:21.142Z,22.6
2017-12-21T10:30:22.848Z,22.9
2017-12-21T10:31:24.594Z,23.6
2017-12-21T10:32:26.350Z,23.4
2017-12-21T10:33:28.075Z,23.2
2017-12-21T10:34:29.780Z,22.8
2017-12-21T10:35:31.524Z,22.7
2017-12-21T10:36:33.243Z,23.6
2017-12-21T10:37:34.983Z,23.4
2017-12-21T10:38:36.724Z,24.0
2017-12-21T10:39:38.460Z,23.6
2017-12-21T10:40:40.180Z,24.5
2017-12-21T10:41:41.932Z,24.5
2017-12-21T10:42:43.657Z,24.4
2017-12-21T10:43:45.405Z,25.3
2017-12-21T10:44:47.177Z,24.4
2017-12-21T10:45:48.922Z,24.4
2017-12-21T10:46:50.640Z,24.5
2017-12-21T10:47:52.384Z,23.7
2017-12-21T10:48:54.131Z,24.7
2017-12-21T10:49:55.864Z,25.6
2017-12-21T10:50:57.574Z,26.6
2017-12-21T10:51:59.293Z,26.9
2017-12-21T10:53:01.011Z,26.2
2017-12-21T10:54:02.759Z,25.4
2017-12-21T10:55:04.502Z,25.9
2017-12-21T10:56:06.213Z,25.9
2017-12-21T10:57:07.922Z,26.6
2017-12-21T10:58:09.644Z,26.0
2017-12-21T10:59:11.388Z,26.1
2017-12-21T11:00:13.125Z,25.1
2017-12-21T11:01:14.850Z,24.5
2017-12-21T11:02:16.571Z,23.5
2017-12-21T11:03:18.314Z,25.0
2017-12-21T11:04:20.067Z,25.1
2017-12-21T11:05:21.802Z,25.1
2017-12-21T11:06:23.538Z,26.2
2017-12-21T11:07:25.290Z,26.3
2017-12-21T11:08:27.032Z,25.5
2017-12-21T11:09:28.779Z,25.3
2017-12-21T11:10:30.520Z,25.6
2017-12-21T11:11:32.295Z,25.6
2017-12-21T11:12:34.019Z,24.9
2017-12-21T11:13:35.774Z,25.0
2017-12-21T11:14:37.527Z,25.1
2017-12-21T11:15:39.280Z,25.2
2017-12-21T11:16:41.022Z,25.4
2017-12-21T11:17:42.758Z,25.9
2017-12-21T11:18:44.514Z,25.4
2017-12-21T11:19:46.278Z,25.3
2017-12-21T11:20:48.007Z,25.0
2017-12-21T11:21:49.751Z,24.3
2017-12-21T11:22:51.504Z,24.6
2017-12-21T11:23:53.250Z,25.0
2017-12-21T11:24:54.992Z,25.0
2017-12-21T11:25:56.816Z,25.2
2017-12-21T11:26:58.528Z,24.5
2017-12-21T11:28:00.280Z,24.8
2017-12-21T11:29:02.017Z,24.9
2017-12-21T11:30:03.760Z,24.8
2017-12-21T11:31:05.481Z,24.6
2017-12-21T11:32:07.216Z,24.5
2017-12-21T11:33:08.974Z,24.8
2017-12-21T11:34:10.697Z,25.3
2017-12-21T11:35:12.462Z,25.1
2017-12-21T11:36:14.252Z,25.2
2017-12-21T11:37:15.976Z,25.0
2017-12-21T11:38:17.700Z,24.1
2017-12-21T11:39:19.422Z,24.8
2017-12-21T11:40:21.146Z,25.1
2017-12-21T11:41:22.888Z,25.1
2017-12-21T11:42:24.619Z,24.7
2017-12-21T11:43:26.352Z,24.7
2017-12-21T11:44:28.113Z,24.9
2017-12-21T11:45:29.896Z,24.9
2017-12-21T11:46:31.693Z,24.5
2017-12-21T11:47:33.415Z,24.5
2017-12-21T11:48:35.145Z,24.9
2017-12-21T11:49:36.904Z,24.7
2017-12-21T11:50:38.654Z,25.0
2017-12-21T11:51:40.400Z,24.5
2017-12-21T11:52:42.141Z,24.6
2017-12-21T11:53:43.877Z,25.1
2017-12-21T11:54:45.614Z,25.3
2017-12-21T11:55:47.387Z,25.4
2017-12-21T11:56:49.155Z,25.4
2017-12-21T11:57:50.886Z,25.3
2017-12-21T11:58:52.624Z,25.7
2017-12-21T11:59:54.436Z,25.5
2017-12-21T12:00:56.226Z,25.2
2017-12-21T12:01:57.940Z,25.0
2017-12-21T12:02:59.688Z,25.2
2017-12-21T12:04:01.424Z,25.7
2017-12-21T12:05:03.187Z,25.7
2017-12-21T12:06:04.934Z,25.1
2017-12-21T12:07:06.686Z,24.9
2017-12-21T12:08:08.451Z,24.6
2017-12-21T12:09:10.206Z,24.8
2017-12-21T12:10:11.955Z,24.8
2017-12-21T12:11:13.689Z,24.5
2017-12-21T12:12:15.438Z,24.8
2017-12-21T12:13:17.184Z,25.0
2017-12-21T12:14:18.911Z,24.5
2017-12-21T12:15:21.603Z,24.4
2017-12-21T12:16:23.361Z,23.8
2017-12-21T12:17:25.176Z,24.1
2017-12-21T12:18:26.982Z,24.0
2017-12-21T12:19:28.730Z,23.5
2017-12-21T12:20:30.485Z,23.5
2017-12-21T12:21:32.289Z,23.6
2017-12-21T12:22:34.054Z,23.4
2017-12-21T12:23:35.810Z,23.3
2017-12-21T12:24:37.572Z,22.9
2017-12-21T12:25:39.310Z,23.1
2017-12-21T12:26:41.029Z,23.3
2017-12-21T12:27:42.757Z,23.4
2017-12-21T12:28:44.476Z,23.0
2017-12-21T12:29:46.223Z,22.6
2017-12-21T12:30:47.964Z,22.1
2017-12-21T12:31:49.726Z,22.3
2017-12-21T12:32:51.466Z,22.3
2017-12-21T12:33:53.193Z,22.2
2017-12-21T12:34:54.925Z,21.9
2017-12-21T12:35:56.660Z,22.0
2017-12-21T12:36:58.383Z,21.5
2017-12-21T12:38:00.157Z,21.3
2017-12-21T12:39:01.897Z,21.4
2017-12-21T12:40:03.674Z,21.7
2017-12-21T12:41:05.402Z,21.5
2017-12-21T12:42:07.126Z,21.3
2017-12-21T12:43:08.864Z,21.6
2017-12-21T12:44:10.660Z,22.0
2017-12-21T12:45:12.390Z,22.4
2017-12-21T12:46:14.135Z,22.4
2017-12-21T12:47:15.893Z,22.3
2017-12-21T12:48:17.634Z,21.0
2017-12-21T12:49:19.382Z,20.9
2017-12-21T12:50:21.122Z,21.3
2017-12-21T12:51:22.873Z,21.3
2017-12-21T12:52:24.625Z,21.2
2017-12-21T12:53:26.371Z,20.8
2017-12-21T12:54:28.122Z,21.2
2017-12-21T12:55:29.873Z,21.0
2017-12-21T12:56:31.639Z,21.5
2017-12-21T12:57:33.399Z,21.7
2017-12-21T12:58:35.122Z,21.5
2017-12-21T12:59:36.869Z,21.2
2017-12-21T13:00:38.614Z,21.4
2017-12-21T13:01:40.377Z,20.9
2017-12-21T13:02:42.200Z,20.4
2017-12-21T13:03:44.016Z,20.3
2017-12-21T13:04:45.740Z,20.2
2017-12-21T13:05:47.474Z,20.7
2017-12-21T13:06:49.207Z,20.9
2017-12-21T13:07:50.999Z,21.1
2017-12-21T13:08:52.724Z,20.7
2017-12-21T13:09:54.409Z,20.0
2017-12-21T13:10:56.166Z,19.4
2017-12-21T13:11:57.915Z,19.3
2017-12-21T13:12:59.635Z,19.5
2017-12-21T13:14:01.489Z,19.6
2017-12-21T13:15:03.207Z,19.3
2017-12-21T13:16:04.933Z,19.2
2017-12-21T13:17:06.679Z,19.3
2017-12-21T13:18:08.458Z,19.2
2017-12-21T13:19:10.197Z,19.2
2017-12-21T13:20:11.936Z,18.9
2017-12-21T13:21:13.677Z,19.0
2017-12-21T13:22:15.459Z,18.7
2017-12-21T13:23:17.252Z,18.8
2017-12-21T13:24:19.044Z,19.3
2017-12-21T13:25:20.777Z,19.9
2017-12-21T13:26:22.514Z,20.4
2017-12-21T13:27:24.269Z,21.2
2017-12-21T13:28:26.020Z,21.3
2017-12-21T13:29:27.773Z,20.3
2017-12-21T13:30:29.512Z,20.2
2017-12-21T13:31:31.257Z,19.8
2017-12-21T13:32:33.088Z,19.4
2017-12-21T13:33:34.819Z,19.3
2017-12-21T13:34:36.568Z,19.0
2017-12-21T13:35:38.284Z,19.1
2017-12-21T13:36:40.025Z,19.1
2017-12-21T13:37:41.756Z,19.1
2017-12-21T13:38:43.495Z,19.3
2017-12-21T13:39:45.242Z,19.3
2017-12-21T13:40:47.013Z,19.4
2017-12-21T13:41:48.728Z,19.5
2017-12-21T13:42:50.482Z,19.5
2017-12-21T13:43:52.232Z,19.8
2017-12-21T13:44:53.978Z,19.9
2017-12-21T13:45:55.936Z,20.2
2017-12-21T13:46:57.650Z,20.4